createdAt,value
2022-11-21T00:00:49.731Z,8.65
2022-11-21T00:04:53.156Z,7.28
2022-11-21T00:06:57.908Z,15.30
2022-11-21T00:08:59.550Z,20.83
2022-11-21T00:11:01.316Z,12.43
2022-11-21T00:13:03.195Z,15.52
2022-11-21T00:15:05.969Z,11.98
2022-11-21T00:17:07.621Z,7.18
2022-11-21T00:19:09.575Z,10.95
2022-11-21T00:21:16.098Z,8.52
2022-11-21T00:23:17.828Z,7.95
2022-11-21T00:25:19.457Z,8.63
2022-11-21T00:27:21.040Z,13.13
2022-11-21T00:29:22.797Z,6.30
2022-11-21T00:31:25.244Z,6.80
2022-11-21T00:33:26.874Z,4.95
2022-11-21T00:35:34.325Z,7.35
2022-11-21T00:37:36.024Z,5.75
2022-11-21T00:39:37.661Z,7.00
2022-11-21T00:41:39.223Z,8.07
2022-11-21T00:43:40.864Z,6.80
2022-11-21T00:45:45.335Z,7.40
2022-11-21T00:47:46.964Z,6.90
2022-11-21T00:49:48.550Z,10.82
2022-11-21T00:51:50.258Z,7.80
2022-11-21T00:53:51.808Z,7.05
2022-11-21T00:55:53.447Z,7.55
2022-11-21T00:57:54.997Z,9.27
2022-11-21T00:59:56.658Z,8.80
2022-11-21T01:01:58.335Z,8.23
2022-11-21T01:03:59.976Z,7.78
2022-11-21T01:06:12.561Z,8.32
2022-11-21T01:08:14.265Z,6.65
2022-11-21T01:10:15.871Z,8.90
2022-11-21T01:12:17.518Z,8.18
2022-11-21T01:14:19.146Z,8.10
2022-11-21T01:16:23.845Z,6.63
2022-11-21T01:18:35.305Z,6.30
2022-11-21T01:20:40.766Z,8.80
2022-11-21T01:22:42.407Z,8.60
2022-11-21T01:24:44.016Z,7.13
2022-11-21T01:26:45.722Z,8.05
2022-11-21T01:28:47.701Z,7.78
2022-11-21T01:30:49.269Z,10.20
2022-11-21T01:32:51.186Z,11.48
2022-11-21T01:34:58.896Z,9.10
2022-11-21T01:37:01.341Z,11.23
2022-11-21T01:39:05.501Z,12.23
2022-11-21T01:41:08.011Z,11.55
2022-11-21T01:43:15.575Z,11.23
2022-11-21T01:45:48.400Z,8.60
2022-11-21T01:47:50.020Z,12.68
2022-11-21T01:49:52.522Z,9.57
2022-11-21T01:52:01.719Z,13.23
2022-11-21T01:54:09.405Z,10.85
2022-11-21T01:56:11.176Z,9.70
2022-11-21T01:58:13.213Z,9.98
2022-11-21T02:00:22.062Z,8.10
2022-11-21T02:02:28.964Z,8.88
2022-11-21T02:04:32.069Z,8.77
2022-11-21T02:06:34.634Z,7.22
2022-11-21T02:08:37.234Z,8.77
2022-11-21T02:10:40.563Z,6.28
2022-11-21T02:12:50.449Z,9.35
2022-11-21T02:14:53.159Z,13.50
2022-11-21T02:16:57.796Z,9.45
2022-11-21T02:18:59.354Z,9.27
2022-11-21T02:21:15.296Z,8.43
2022-11-21T02:24:03.220Z,9.85
2022-11-21T02:26:05.020Z,8.55
2022-11-21T02:28:08.658Z,8.32
2022-11-21T02:30:10.953Z,7.57
2022-11-21T02:32:24.466Z,7.25
2022-11-21T02:34:26.532Z,8.15
2022-11-21T02:36:37.344Z,8.55
2022-11-21T02:38:39.083Z,10.65
2022-11-21T02:40:44.463Z,5.95
2022-11-21T02:42:52.554Z,7.35
2022-11-21T02:45:01.777Z,8.98
2022-11-21T02:47:03.350Z,9.07
2022-11-21T02:49:07.959Z,9.35
2022-11-21T02:51:09.579Z,8.73
2022-11-21T02:53:14.262Z,6.35
2022-11-21T02:55:16.019Z,8.63
2022-11-21T02:57:17.642Z,5.47
2022-11-21T02:59:19.290Z,7.40
2022-11-21T03:01:21.020Z,4.82
2022-11-21T03:03:22.896Z,7.57
2022-11-21T03:05:24.876Z,9.90
2022-11-21T03:07:26.566Z,7.93
2022-11-21T03:09:28.236Z,5.25
2022-11-21T03:11:29.858Z,4.88
2022-11-21T03:13:37.524Z,5.32
2022-11-21T03:15:39.269Z,6.95
2022-11-21T03:17:41.444Z,4.30
2022-11-21T03:19:43.070Z,5.88
2022-11-21T03:21:44.698Z,4.38
2022-11-21T03:23:46.297Z,3.35
2022-11-21T03:25:47.827Z,5.82
2022-11-21T03:27:53.703Z,4.75
2022-11-21T03:29:55.261Z,5.82
2022-11-21T03:31:56.954Z,8.93
2022-11-21T03:33:58.610Z,8.75
2022-11-21T03:36:00.200Z,8.68
2022-11-21T03:38:01.829Z,6.38
2022-11-21T03:40:03.856Z,5.60
2022-11-21T03:42:05.519Z,5.40
2022-11-21T03:44:09.702Z,5.95
2022-11-21T03:46:11.455Z,5.80
2022-11-21T03:48:13.070Z,6.28
2022-11-21T03:50:18.547Z,10.15
2022-11-21T03:52:20.226Z,6.75
2022-11-21T03:54:21.800Z,6.00
2022-11-21T03:56:23.530Z,3.92
2022-11-21T03:58:25.131Z,6.03
2022-11-21T04:00:26.704Z,4.70
2022-11-21T04:02:28.670Z,4.93
2022-11-21T04:04:30.558Z,3.78
2022-11-21T04:06:32.470Z,5.18
2022-11-21T04:08:34.055Z,6.95
2022-11-21T04:10:35.695Z,3.95
2022-11-21T04:12:37.402Z,5.13
2022-11-21T04:14:39.076Z,3.78
2022-11-21T04:16:40.912Z,5.60
2022-11-21T04:18:42.512Z,7.25
2022-11-21T04:20:44.394Z,5.38
2022-11-21T04:22:46.030Z,8.65
2022-11-21T04:24:47.652Z,4.30
2022-11-21T04:26:49.271Z,6.00
2022-11-21T04:28:50.817Z,7.57
2022-11-21T04:30:54.967Z,4.88
2022-11-21T04:32:57.223Z,4.32
2022-11-21T04:34:59.077Z,5.20
2022-11-21T04:37:00.757Z,3.67
2022-11-21T04:39:02.460Z,3.60
2022-11-21T04:41:04.958Z,5.72
2022-11-21T04:43:06.866Z,6.85
2022-11-21T04:45:09.183Z,4.70
2022-11-21T04:47:10.847Z,6.68
2022-11-21T04:49:12.700Z,3.70
2022-11-21T04:51:14.436Z,7.35
2022-11-21T04:53:16.062Z,2.90
2022-11-21T04:55:18.373Z,4.65
2022-11-21T04:57:19.945Z,5.13
2022-11-21T04:59:21.587Z,3.70
2022-11-21T05:01:23.256Z,4.30
2022-11-21T05:03:24.913Z,3.95
2022-11-21T05:05:26.589Z,6.03
2022-11-21T05:07:28.262Z,4.40
2022-11-21T05:09:29.926Z,5.38
2022-11-21T05:11:50.215Z,5.20
2022-11-21T05:13:54.200Z,4.30
2022-11-21T05:15:58.955Z,5.88
2022-11-21T05:18:00.578Z,5.18
2022-11-21T05:20:02.164Z,4.72
2022-11-21T05:22:03.786Z,7.25
2022-11-21T05:24:05.594Z,5.18
2022-11-21T05:26:07.342Z,4.40
2022-11-21T05:28:09.273Z,4.07
2022-11-21T05:30:12.081Z,3.97
2022-11-21T05:32:13.690Z,4.97
2022-11-21T05:34:15.320Z,4.25
2022-11-21T05:36:16.988Z,3.95
2022-11-21T05:38:18.834Z,4.68
2022-11-21T05:40:20.413Z,3.17
2022-11-21T05:42:41.896Z,4.75
2022-11-21T05:44:43.467Z,4.90
2022-11-21T05:49:04.187Z,5.00
2022-11-21T05:51:06.138Z,3.75
2022-11-21T05:53:07.828Z,3.38
2022-11-21T05:55:09.517Z,2.45
2022-11-21T05:57:11.183Z,2.97
2022-11-21T05:59:12.836Z,2.50
2022-11-21T06:01:15.453Z,2.22
2022-11-21T06:03:30.281Z,1.58
2022-11-21T06:05:31.904Z,1.80
2022-11-21T06:07:33.613Z,1.50
2022-11-21T06:09:35.504Z,1.70
2022-11-21T06:11:37.075Z,3.05
2022-11-21T06:13:38.995Z,4.28
2022-11-21T06:15:40.649Z,2.45
2022-11-21T06:17:42.310Z,4.15
2022-11-21T06:19:43.884Z,4.00
2022-11-21T06:21:45.466Z,3.13
2022-11-21T06:23:47.995Z,2.58
2022-11-21T06:25:56.559Z,4.03
2022-11-21T06:28:00.285Z,4.63
2022-11-21T06:30:02.018Z,3.50
2022-11-21T06:32:03.681Z,4.43
2022-11-21T06:34:05.326Z,3.55
2022-11-21T06:36:14.695Z,4.70
2022-11-21T06:38:18.763Z,3.97
2022-11-21T06:40:20.374Z,3.88
2022-11-21T06:42:21.963Z,2.30
2022-11-21T06:44:23.591Z,2.40
2022-11-21T06:46:25.224Z,2.05
2022-11-21T06:48:26.920Z,2.17
2022-11-21T06:50:29.773Z,2.70
2022-11-21T06:52:35.526Z,2.42
2022-11-21T06:54:37.203Z,3.80
2022-11-21T06:56:38.825Z,3.38
2022-11-21T06:58:40.507Z,3.00
2022-11-21T07:00:42.364Z,5.15
2022-11-21T07:02:44.118Z,4.03
2022-11-21T07:04:45.957Z,3.35
2022-11-21T07:06:47.723Z,4.45
2022-11-21T07:09:17.716Z,6.18
2022-11-21T07:11:30.327Z,8.10
2022-11-21T07:13:32.692Z,6.65
2022-11-21T07:15:34.251Z,6.30
2022-11-21T07:17:35.889Z,6.45
2022-11-21T07:19:40.825Z,5.78
2022-11-21T07:21:43.224Z,5.68
2022-11-21T07:23:44.798Z,4.78
2022-11-21T07:25:46.463Z,5.30
2022-11-21T07:27:48.112Z,6.88
2022-11-21T07:29:49.728Z,5.72
2022-11-21T07:31:51.252Z,6.82
2022-11-21T07:33:52.851Z,5.45
2022-11-21T07:35:58.339Z,3.75
2022-11-21T07:38:00.644Z,4.47
2022-11-21T07:40:02.277Z,4.72
2022-11-21T07:42:03.903Z,5.72
2022-11-21T07:44:05.730Z,3.13
2022-11-21T07:46:07.360Z,3.97
2022-11-21T07:48:10.145Z,7.13
2022-11-21T07:50:12.166Z,7.07
2022-11-21T07:52:13.752Z,5.07
2022-11-21T07:54:15.372Z,5.07
2022-11-21T07:56:17.001Z,4.80
2022-11-21T07:58:18.686Z,4.03
2022-11-21T08:00:20.421Z,5.32
2022-11-21T08:02:27.247Z,4.43
2022-11-21T08:04:28.926Z,5.40
2022-11-21T08:06:30.535Z,4.03
2022-11-21T08:08:32.429Z,7.25
2022-11-21T08:10:36.852Z,10.93
2022-11-21T08:12:38.601Z,17.05
2022-11-21T08:14:40.531Z,4.68
2022-11-21T08:16:42.230Z,9.13
2022-11-21T08:18:43.861Z,8.43
2022-11-21T08:20:45.510Z,21.00
2022-11-21T08:22:47.319Z,17.48
2022-11-21T08:24:49.036Z,6.43
2022-11-21T08:26:50.902Z,6.90
2022-11-21T08:28:58.471Z,10.00
2022-11-21T08:31:04.801Z,6.13
2022-11-21T08:33:07.140Z,7.68
2022-11-21T08:35:09.016Z,9.25
2022-11-21T08:37:10.601Z,6.65
2022-11-21T08:39:12.245Z,4.10
2022-11-21T08:41:32.316Z,3.58
2022-11-21T08:43:33.914Z,6.05
2022-11-21T08:45:37.158Z,7.20
2022-11-21T08:47:38.855Z,4.65
2022-11-21T08:49:40.577Z,4.70
2022-11-21T08:51:42.692Z,5.45
2022-11-21T08:53:44.309Z,5.72
2022-11-21T08:55:45.885Z,7.03
2022-11-21T08:57:47.553Z,7.60
2022-11-21T08:59:49.077Z,4.82
2022-11-21T09:01:50.726Z,7.15
2022-11-21T09:03:52.446Z,5.30
2022-11-21T09:05:56.931Z,4.32
2022-11-21T09:07:59.053Z,3.78
2022-11-21T09:10:00.693Z,2.97
2022-11-21T09:12:02.872Z,4.90
2022-11-21T09:14:23.067Z,3.90
2022-11-21T09:16:43.059Z,5.80
2022-11-21T09:18:44.712Z,3.38
2022-11-21T09:20:46.425Z,4.45
2022-11-21T09:22:48.278Z,5.22
2022-11-21T09:24:49.869Z,5.80
2022-11-21T09:26:51.484Z,3.63
2022-11-21T09:28:53.119Z,4.43
2022-11-21T09:30:54.801Z,4.20
2022-11-21T09:33:04.613Z,3.00
2022-11-21T09:35:06.829Z,3.80
2022-11-21T09:37:08.447Z,3.30
2022-11-21T09:39:10.305Z,5.40
2022-11-21T09:41:44.603Z,4.20
2022-11-21T09:44:09.943Z,4.57
2022-11-21T09:46:15.313Z,3.60
2022-11-21T09:48:36.661Z,4.80
2022-11-21T09:50:49.328Z,7.70
2022-11-21T09:53:07.011Z,4.53
2022-11-21T09:55:27.827Z,5.72
2022-11-21T09:57:34.615Z,4.75
2022-11-21T09:59:39.003Z,4.55
2022-11-21T10:01:40.715Z,6.43
2022-11-21T10:03:45.147Z,5.50
2022-11-21T10:06:29.593Z,10.15
2022-11-21T10:08:48.201Z,10.25
2022-11-21T10:10:58.578Z,12.10
2022-11-21T10:13:43.491Z,7.95
2022-11-21T10:15:50.599Z,10.32
2022-11-21T10:18:10.696Z,11.02
2022-11-21T10:20:36.323Z,13.73
2022-11-21T10:23:11.598Z,17.50
2022-11-21T10:25:15.248Z,13.85
2022-11-21T10:27:36.575Z,17.20
2022-11-21T10:29:45.403Z,11.02
2022-11-21T10:31:47.325Z,10.57
2022-11-21T10:33:50.758Z,7.18
2022-11-21T10:35:55.854Z,11.52
2022-11-21T10:38:01.903Z,10.60
2022-11-21T10:40:42.631Z,9.82
2022-11-21T10:43:28.013Z,7.40
2022-11-21T10:45:29.618Z,6.95
2022-11-21T10:47:37.579Z,5.97
2022-11-21T10:49:39.713Z,5.90
2022-11-21T10:51:47.041Z,5.85
2022-11-21T10:54:22.506Z,7.45
2022-11-21T10:56:26.669Z,6.53
2022-11-21T11:00:57.486Z,9.98
2022-11-21T11:03:04.873Z,9.70
2022-11-21T11:05:19.719Z,8.43
2022-11-21T11:07:27.422Z,11.00
2022-11-21T11:09:31.390Z,14.57
2022-11-21T11:13:53.726Z,11.02
2022-11-21T11:16:11.628Z,9.50
2022-11-21T11:18:14.534Z,7.38
2022-11-21T11:20:38.179Z,7.13
2022-11-21T11:22:39.831Z,7.78
2022-11-21T11:24:56.205Z,7.72
2022-11-21T11:27:03.395Z,9.57
2022-11-21T11:29:15.205Z,13.73
2022-11-21T11:31:17.007Z,14.65
2022-11-21T11:33:48.032Z,14.00
2022-11-21T11:35:49.850Z,12.35
2022-11-21T11:38:00.899Z,13.90
2022-11-21T11:40:26.870Z,13.32
2022-11-21T11:42:56.385Z,13.80
2022-11-21T11:45:35.660Z,7.93
2022-11-21T11:47:54.825Z,10.73
2022-11-21T11:50:14.066Z,9.30
2022-11-21T11:52:16.012Z,8.95
2022-11-21T11:54:21.119Z,6.25
2022-11-21T11:56:26.453Z,9.18
2022-11-21T11:58:40.752Z,8.13
2022-11-21T12:02:57.834Z,10.02
2022-11-21T12:05:14.691Z,8.95
2022-11-21T12:10:11.591Z,6.85
2022-11-21T12:12:31.967Z,9.18
2022-11-21T12:15:05.974Z,11.43
2022-11-21T12:17:09.214Z,9.68
2022-11-21T12:19:14.555Z,10.18
2022-11-21T12:21:20.958Z,7.05
2022-11-21T12:23:25.489Z,7.57
2022-11-21T12:25:32.755Z,10.63
2022-11-21T12:27:34.477Z,10.07
2022-11-21T12:30:04.963Z,14.07
2022-11-21T12:32:09.547Z,10.25
2022-11-21T12:34:42.442Z,9.75
2022-11-21T12:36:56.648Z,15.50
2022-11-21T12:39:13.040Z,17.40
2022-11-21T12:41:56.725Z,19.15
2022-11-21T12:44:35.279Z,8.82
2022-11-21T12:46:53.634Z,12.93
2022-11-21T12:49:25.278Z,13.73
2022-11-21T12:51:55.404Z,14.48
2022-11-21T12:54:23.298Z,15.82
2022-11-21T12:56:49.924Z,12.18
2022-11-21T12:58:53.333Z,13.43
2022-11-21T13:01:21.753Z,12.77
2022-11-21T13:03:29.882Z,8.25
2022-11-21T13:05:35.984Z,7.95
2022-11-21T13:07:38.279Z,7.65
2022-11-21T13:09:42.117Z,9.27
2022-11-21T13:11:59.794Z,11.55
2022-11-21T13:14:30.999Z,13.88
2022-11-21T13:16:39.641Z,8.85
2022-11-21T13:18:48.259Z,11.13
2022-11-21T13:20:51.938Z,11.70
2022-11-21T13:22:58.581Z,11.00
2022-11-21T13:25:01.280Z,7.95
2022-11-21T13:27:02.980Z,6.85
2022-11-21T13:29:11.595Z,10.13
2022-11-21T13:31:32.367Z,10.02
2022-11-21T13:33:39.882Z,9.77
2022-11-21T13:35:50.644Z,11.15
2022-11-21T13:37:55.284Z,15.18
2022-11-21T13:40:32.001Z,16.10
2022-11-21T13:45:52.888Z,8.38
2022-11-21T13:48:05.040Z,9.13
2022-11-21T13:50:25.511Z,8.55
2022-11-21T13:52:49.153Z,10.73
2022-11-21T13:55:02.363Z,8.93
2022-11-21T13:57:07.122Z,6.40
2022-11-21T13:59:30.680Z,8.68
2022-11-21T14:01:54.068Z,10.30
2022-11-21T14:04:21.680Z,9.63
2022-11-21T14:06:33.429Z,11.32
2022-11-21T14:08:35.692Z,9.13
2022-11-21T14:10:37.288Z,10.05
2022-11-21T14:12:44.679Z,8.30
2022-11-21T14:15:01.924Z,9.05
2022-11-21T14:17:14.388Z,11.82
2022-11-21T14:19:22.943Z,8.75
2022-11-21T14:21:28.150Z,10.05
2022-11-21T14:23:31.806Z,9.25
2022-11-21T14:25:37.891Z,12.23
2022-11-21T14:27:45.134Z,11.43
2022-11-21T14:29:47.062Z,10.90
2022-11-21T14:31:49.582Z,8.98
2022-11-21T14:33:57.631Z,14.57
2022-11-21T14:36:03.222Z,12.20
2022-11-21T14:38:06.578Z,12.18
2022-11-21T14:40:12.806Z,10.68
2022-11-21T14:42:17.527Z,12.20
2022-11-21T14:44:21.957Z,12.20
2022-11-21T14:46:26.776Z,11.45
2022-11-21T14:48:31.812Z,13.98
2022-11-21T14:50:34.893Z,13.60
2022-11-21T14:52:36.662Z,10.52
2022-11-21T14:55:06.323Z,13.40
2022-11-21T14:57:08.620Z,13.20
2022-11-21T14:59:19.907Z,14.23
2022-11-21T15:01:34.626Z,13.77
2022-11-21T15:03:36.352Z,13.43
2022-11-21T15:06:01.360Z,14.20
2022-11-21T15:08:17.109Z,9.60
2022-11-21T15:10:36.129Z,11.23
2022-11-21T15:12:48.501Z,7.97
2022-11-21T15:15:02.334Z,10.85
2022-11-21T15:17:06.355Z,8.50
2022-11-21T15:19:11.298Z,9.70
2022-11-21T15:21:15.198Z,6.90
2022-11-21T15:25:30.873Z,8.60
2022-11-21T15:29:34.981Z,13.80
2022-11-21T15:31:36.605Z,10.85
2022-11-21T15:34:27.355Z,10.88
2022-11-21T15:36:19.340Z,10.10
2022-11-21T15:38:28.211Z,10.15
2022-11-21T15:40:29.798Z,10.15
2022-11-21T15:42:31.634Z,10.20
2022-11-21T15:44:33.511Z,10.52
2022-11-21T15:46:42.375Z,8.85
2022-11-21T15:48:49.002Z,11.45
2022-11-21T15:50:54.518Z,11.18
2022-11-21T15:52:59.188Z,11.35
2022-11-21T15:55:00.809Z,12.85
2022-11-21T15:57:02.495Z,13.05
2022-11-21T15:59:04.142Z,11.55
2022-11-21T16:01:06.064Z,10.98
2022-11-21T16:03:07.727Z,11.40
2022-11-21T16:05:15.728Z,10.63
2022-11-21T16:07:17.706Z,11.40
2022-11-21T16:09:19.357Z,13.35
2022-11-21T16:11:28.838Z,9.10
2022-11-21T16:13:30.491Z,7.40
2022-11-21T16:15:32.214Z,9.52
2022-11-21T16:17:33.874Z,6.88
2022-11-21T16:19:35.526Z,6.32
2022-11-21T16:21:37.345Z,7.15
2022-11-21T16:23:39.432Z,8.05
2022-11-21T16:25:52.839Z,5.25
2022-11-21T16:27:54.436Z,7.20
2022-11-21T16:29:56.058Z,4.38
2022-11-21T16:31:57.893Z,7.10
2022-11-21T16:34:00.705Z,7.07
2022-11-21T16:36:02.420Z,9.40
2022-11-21T16:38:07.746Z,13.40
2022-11-21T16:40:10.999Z,5.63
2022-11-21T16:42:12.756Z,7.18
2022-11-21T16:44:15.739Z,12.02
2022-11-21T16:46:17.985Z,7.87
2022-11-21T16:48:20.869Z,8.07
2022-11-21T16:50:22.575Z,10.20
2022-11-21T16:52:24.162Z,12.40
2022-11-21T16:54:25.847Z,12.20
2022-11-21T16:56:28.073Z,12.48
2022-11-21T16:58:30.166Z,14.52
2022-11-21T17:00:32.759Z,12.82
2022-11-21T17:02:37.037Z,12.07
2022-11-21T17:04:38.660Z,11.35
2022-11-21T17:06:40.322Z,10.85
2022-11-21T17:08:42.130Z,7.95
2022-11-21T17:10:43.753Z,8.15
2022-11-21T17:12:45.451Z,8.45
2022-11-21T17:14:47.989Z,9.20
2022-11-21T17:16:50.974Z,8.18
2022-11-21T17:18:57.168Z,8.23
2022-11-21T17:20:59.205Z,8.35
2022-11-21T17:23:00.809Z,6.72
2022-11-21T17:25:02.477Z,6.88
2022-11-21T17:27:04.101Z,6.60
2022-11-21T17:29:05.769Z,6.15
2022-11-21T17:31:09.266Z,6.97
2022-11-21T17:33:11.057Z,5.88
2022-11-21T17:35:12.776Z,6.30
2022-11-21T17:37:14.916Z,7.50
2022-11-21T17:39:18.169Z,5.60
2022-11-21T17:41:21.283Z,5.45
2022-11-21T17:43:22.958Z,5.78
2022-11-21T17:45:24.561Z,6.40
2022-11-21T17:47:26.228Z,5.65
2022-11-21T17:49:30.404Z,5.72
2022-11-21T17:51:35.344Z,5.68
2022-11-21T17:53:39.064Z,5.47
2022-11-21T17:55:40.730Z,5.97
2022-11-21T17:57:42.335Z,6.28
2022-11-21T17:59:45.141Z,6.07
2022-11-21T18:01:46.965Z,6.07
2022-11-21T18:03:53.651Z,7.07
2022-11-21T18:06:13.758Z,5.95
2022-11-21T18:08:15.607Z,9.70
2022-11-21T18:10:41.594Z,7.25
2022-11-21T18:12:39.002Z,7.70
2022-11-21T18:14:40.673Z,7.18
2022-11-21T18:16:47.598Z,7.35
2022-11-21T18:18:52.951Z,7.20
2022-11-21T18:20:54.630Z,7.32
2022-11-21T18:22:56.652Z,8.82
2022-11-21T18:24:58.375Z,7.25
2022-11-21T18:26:59.967Z,9.27
2022-11-21T18:31:27.176Z,11.32
2022-11-21T18:33:28.727Z,8.20
2022-11-21T18:35:30.336Z,7.35
2022-11-21T18:37:34.243Z,7.80
2022-11-21T18:41:40.038Z,8.20
2022-11-21T18:43:43.567Z,7.05
2022-11-21T18:45:45.161Z,9.05
2022-11-21T18:47:47.887Z,8.88
2022-11-21T18:49:50.055Z,6.03
2022-11-21T18:51:51.721Z,6.82
2022-11-21T18:53:58.339Z,5.60
2022-11-21T18:56:04.911Z,6.00
2022-11-21T18:58:06.658Z,5.90
2022-11-21T19:00:08.964Z,8.05
2022-11-21T19:02:10.646Z,6.35
2022-11-21T19:04:12.442Z,6.32
2022-11-21T19:06:20.485Z,5.47
2022-11-21T19:08:22.096Z,5.82
2022-11-21T19:12:45.662Z,4.93
2022-11-21T19:14:47.817Z,6.03
2022-11-21T19:16:49.546Z,5.25
2022-11-21T19:19:18.644Z,4.70
2022-11-21T19:21:14.637Z,4.40
2022-11-21T19:23:16.224Z,5.05
2022-11-21T19:25:17.915Z,4.65
2022-11-21T19:27:24.302Z,5.50
2022-11-21T19:29:27.197Z,5.07
2022-11-21T19:33:32.548Z,4.85
2022-11-21T19:35:34.287Z,4.53
2022-11-21T19:37:36.447Z,5.72
2022-11-21T19:39:38.304Z,5.60
2022-11-21T19:41:40.329Z,5.25
2022-11-21T19:43:59.330Z,5.45
2022-11-21T19:46:04.055Z,5.15
2022-11-21T19:48:05.993Z,4.55
2022-11-21T19:50:08.073Z,5.13
2022-11-21T19:52:11.400Z,5.05
2022-11-21T19:54:13.997Z,5.10
2022-11-21T19:56:17.783Z,5.68
2022-11-21T19:58:19.980Z,5.20
2022-11-21T20:00:22.877Z,4.95
2022-11-21T20:02:25.036Z,5.05
2022-11-21T20:04:27.071Z,5.68
2022-11-21T20:06:37.712Z,5.38
2022-11-21T20:08:39.455Z,5.30
2022-11-21T20:11:07.318Z,5.32
2022-11-21T20:13:09.024Z,6.15
2022-11-21T20:15:10.866Z,6.03
2022-11-21T20:17:12.477Z,4.72
2022-11-21T20:19:18.456Z,5.30
2022-11-21T20:21:26.779Z,5.60
2022-11-21T20:23:28.446Z,5.53
2022-11-21T20:25:30.061Z,5.22
2022-11-21T20:27:31.684Z,6.07
2022-11-21T20:29:33.256Z,7.20
2022-11-21T20:31:37.336Z,5.10
2022-11-21T20:33:41.769Z,5.82
2022-11-21T20:35:44.353Z,5.15
2022-11-21T20:37:46.102Z,5.45
2022-11-21T20:39:48.355Z,5.63
2022-11-21T20:41:50.165Z,6.70
2022-11-21T20:46:25.124Z,4.90
2022-11-21T20:48:26.729Z,5.60
2022-11-21T20:51:11.020Z,5.53
2022-11-21T20:55:20.551Z,5.53
2022-11-21T20:57:22.588Z,3.72
2022-11-21T20:59:25.816Z,4.20
2022-11-21T21:01:27.895Z,3.00
2022-11-21T21:03:30.598Z,3.90
2022-11-21T21:05:33.146Z,3.88
2022-11-21T21:07:35.011Z,3.85
2022-11-21T21:09:36.800Z,4.00
2022-11-21T21:11:52.134Z,3.67
2022-11-21T21:13:54.395Z,4.32
2022-11-21T21:15:56.339Z,4.28
2022-11-21T21:17:57.922Z,4.13
2022-11-21T21:19:59.469Z,3.83
2022-11-21T21:22:01.283Z,3.92
2022-11-21T21:24:05.156Z,4.07
2022-11-21T21:28:21.644Z,3.10
2022-11-21T21:30:23.570Z,4.57
2022-11-21T21:32:25.404Z,3.53
2022-11-21T21:34:27.005Z,4.15
2022-11-21T21:36:28.810Z,3.90
2022-11-21T21:38:30.507Z,3.63
2022-11-21T21:40:33.131Z,3.42
2022-11-21T21:42:34.735Z,2.97
2022-11-21T21:44:37.213Z,3.05
2022-11-21T21:46:39.020Z,3.10
2022-11-21T21:48:42.423Z,3.90
2022-11-21T21:50:44.065Z,4.57
2022-11-21T21:52:45.773Z,3.58
2022-11-21T21:54:47.722Z,4.07
2022-11-21T21:56:49.825Z,3.58
2022-11-21T21:58:51.739Z,3.67
2022-11-21T22:00:53.453Z,3.00
2022-11-21T22:02:55.054Z,3.42
2022-11-21T22:04:56.682Z,3.42
2022-11-21T22:06:59.704Z,3.67
2022-11-21T22:09:02.219Z,3.67
2022-11-21T22:11:09.266Z,4.10
2022-11-21T22:13:10.926Z,4.50
2022-11-21T22:15:12.670Z,3.08
2022-11-21T22:17:14.390Z,3.42
2022-11-21T22:19:16.115Z,3.70
2022-11-21T22:21:28.032Z,3.75
2022-11-21T22:23:30.672Z,3.35
2022-11-21T22:25:32.350Z,3.70
2022-11-21T22:27:34.041Z,3.15
2022-11-21T22:29:35.643Z,3.60
2022-11-21T22:31:37.588Z,3.67
2022-11-21T22:33:40.419Z,2.85
2022-11-21T22:35:42.064Z,3.72
2022-11-21T22:37:43.726Z,3.30
2022-11-21T22:39:45.322Z,3.30
2022-11-21T22:41:46.898Z,5.28
2022-11-21T22:43:57.315Z,3.83
2022-11-21T22:46:03.092Z,3.17
2022-11-21T22:48:05.809Z,2.28
2022-11-21T22:50:08.057Z,2.85
2022-11-21T22:52:09.709Z,2.35
2022-11-21T22:54:11.439Z,2.22
2022-11-21T22:56:13.083Z,2.30
2022-11-21T22:58:14.684Z,2.38
2022-11-21T23:00:17.182Z,2.90
2022-11-21T23:02:19.050Z,3.15
2022-11-21T23:04:20.655Z,2.58
2022-11-21T23:06:24.240Z,4.35
2022-11-21T23:08:26.033Z,3.10
2022-11-21T23:10:27.692Z,2.85
2022-11-21T23:12:30.689Z,3.55
2022-11-21T23:14:32.344Z,3.73
2022-11-21T23:16:33.935Z,3.05
2022-11-21T23:18:35.934Z,2.47
2022-11-21T23:20:37.592Z,2.20
2022-11-21T23:22:42.113Z,3.33
2022-11-21T23:24:43.711Z,2.35
2022-11-21T23:26:45.368Z,2.38
2022-11-21T23:28:47.267Z,3.30
2022-11-21T23:31:01.253Z,2.47
2022-11-21T23:33:21.280Z,2.22
2022-11-21T23:35:22.904Z,2.67
2022-11-21T23:37:24.591Z,2.40
2022-11-21T23:39:26.450Z,2.33
2022-11-21T23:41:28.085Z,2.78
2022-11-21T23:43:29.687Z,2.35
2022-11-21T23:45:31.320Z,2.50
2022-11-21T23:47:32.973Z,2.78
2022-11-21T23:49:34.557Z,2.20
2022-11-21T23:51:36.441Z,2.40
2022-11-21T23:53:38.060Z,4.78
2022-11-21T23:55:39.623Z,2.80
2022-11-21T23:57:41.339Z,2.00
2022-11-21T23:59:43.021Z,2.50
